Laporte, Colorado
Current Conditions -  °F | °C
As of 4:15 PM on Saturday 25 Oct 2014 (Local Time) from KFNL Reporting Station
Clear Clear  
Wind Chill: 81°   Ceiling: Unl
Heat Index: 81°   Visibility: 10mi
Dew Point: 25°   Wind: 14mph
Humidity: 13%   Direction: 140°SE
Pressure: 30.06"   Gusts: NA
Location:  40.63°N, 105.14°W
Report Text: KFNL 252215Z AUTO 14012KT 10SM CLR 27/M04 A3006 RMK AO1
Loading
Personal Weather Stations






























Interactive Weather Map
Tropical Storm Tracking
New forecast layout! Learn more

10-Day Weather Forecast

Advertisements
Track Severe Weather on mobile